sensor_id;sensor_type;location;lat;lon;timestamp;pressure;altitude;pressure_sealevel;temperature;humidity
29239;BME280;16267;48.194;11.546;2023-04-16T00:01:25;95759.69;;;6.12;100.00
29239;BME280;16267;48.194;11.546;2023-04-16T00:03:51;95751.75;;;6.19;100.00
29239;BME280;16267;48.194;11.546;2023-04-16T00:06:16;95755.91;;;6.20;100.00
29239;BME280;16267;48.194;11.546;2023-04-16T00:08:42;95749.44;;;6.14;100.00
29239;BME280;16267;48.194;11.546;2023-04-16T00:11:08;95757.44;;;6.10;100.00
29239;BME280;16267;48.194;11.546;2023-04-16T00:13:34;95753.59;;;6.08;100.00
29239;BME280;16267;48.194;11.546;2023-04-16T00:16:00;95754.72;;;6.03;100.00
29239;BME280;16267;48.194;11.546;2023-04-16T00:18:25;95755.88;;;6.06;100.00
29239;BME280;16267;48.194;11.546;2023-04-16T00:20:52;95760.06;;;6.03;100.00
29239;BME280;16267;48.194;11.546;2023-04-16T00:23:19;95749.41;;;6.03;100.00
29239;BME280;16267;48.194;11.546;2023-04-16T00:25:45;95749.75;;;5.94;100.00
29239;BME280;16267;48.194;11.546;2023-04-16T00:28:11;95747.13;;;6.01;100.00
29239;BME280;16267;48.194;11.546;2023-04-16T00:30:37;95752.47;;;6.09;100.00
29239;BME280;16267;48.194;11.546;2023-04-16T00:33:03;95744.09;;;6.10;100.00
29239;BME280;16267;48.194;11.546;2023-04-16T00:35:29;95751.34;;;6.10;100.00
29239;BME280;16267;48.194;11.546;2023-04-16T00:37:55;95750.94;;;6.15;100.00
29239;BME280;16267;48.194;11.546;2023-04-16T00:40:21;95745.63;;;6.15;100.00
29239;BME280;16267;48.194;11.546;2023-04-16T00:42:47;95750.97;;;6.18;100.00
29239;BME280;16267;48.194;11.546;2023-04-16T00:45:13;95750.59;;;6.16;100.00
29239;BME280;16267;48.194;11.546;2023-04-16T00:47:38;95747.94;;;6.16;100.00
29239;BME280;16267;48.194;11.546;2023-04-16T00:50:05;95749.84;;;6.16;100.00
29239;BME280;16267;48.194;11.546;2023-04-16T00:52:41;95752.06;;;6.07;100.00
29239;BME280;16267;48.194;11.546;2023-04-16T00:55:08;95745.19;;;5.98;100.00
29239;BME280;16267;48.194;11.546;2023-04-16T00:57:38;95743.25;;;5.88;100.00
29239;BME280;16267;48.194;11.546;2023-04-16T01:00:05;95747.13;;;6.01;100.00
29239;BME280;16267;48.194;11.546;2023-04-16T01:02:32;95744.81;;;6.03;100.00
29239;BME280;16267;48.194;11.546;2023-04-16T01:05:00;95750.19;;;6.07;100.00
29239;BME280;16267;48.194;11.546;2023-04-16T01:07:26;95750.09;;;5.93;100.00
29239;BME280;16267;48.194;11.546;2023-04-16T01:09:52;95752.00;;;5.92;100.00
29239;BME280;16267;48.194;11.546;2023-04-16T01:12:21;95755.41;;;5.93;100.00
29239;BME280;16267;48.194;11.546;2023-04-16T01:14:47;95756.63;;;5.99;100.00
29239;BME280;16267;48.194;11.546;2023-04-16T01:17:13;95759.66;;;6.01;100.00
29239;BME280;16267;48.194;11.546;2023-04-16T01:19:39;95756.25;;;6.00;100.00
29239;BME280;16267;48.194;11.546;2023-04-16T01:22:05;95757.38;;;5.99;100.00
29239;BME280;16267;48.194;11.546;2023-04-16T01:24:31;95760.44;;;6.01;100.00
29239;BME280;16267;48.194;11.546;2023-04-16T01:27:00;95758.47;;;5.88;100.00
29239;BME280;16267;48.194;11.546;2023-04-16T01:29:26;95761.50;;;5.90;100.00
29239;BME280;16267;48.194;11.546;2023-04-16T01:31:52;95766.88;;;5.93;100.00
29239;BME280;16267;48.194;11.546;2023-04-16T01:34:18;95765.00;;;6.01;100.00
29239;BME280;16267;48.194;11.546;2023-04-16T01:36:44;95764.63;;;6.02;100.00
29239;BME280;16267;48.194;11.546;2023-04-16T01:39:10;95767.28;;;6.06;100.00
29239;BME280;16267;48.194;11.546;2023-04-16T01:41:46;95771.13;;;6.09;100.00
29239;BME280;16267;48.194;11.546;2023-04-16T01:44:14;95768.84;;;6.07;100.00
29239;BME280;16267;48.194;11.546;2023-04-16T01:46:40;95773.38;;;5.99;100.00
29239;BME280;16267;48.194;11.546;2023-04-16T01:49:06;95771.81;;;5.95;100.00
29239;BME280;16267;48.194;11.546;2023-04-16T01:51:32;95768.03;;;5.99;100.00
29239;BME280;16267;48.194;11.546;2023-04-16T01:53:58;95778.31;;;6.01;100.00
29239;BME280;16267;48.194;11.546;2023-04-16T01:56:24;95773.38;;;5.96;100.00
29239;BME280;16267;48.194;11.546;2023-04-16T01:58:50;95776.78;;;6.00;100.00
29239;BME280;16267;48.194;11.546;2023-04-16T02:01:16;95776.03;;;5.96;100.00
29239;BME280;16267;48.194;11.546;2023-04-16T02:03:41;95769.13;;;5.91;100.00
29239;BME280;16267;48.194;11.546;2023-04-16T02:06:07;95770.31;;;5.94;100.00
29239;BME280;16267;48.194;11.546;2023-04-16T02:08:33;95772.22;;;5.93;100.00
29239;BME280;16267;48.194;11.546;2023-04-16T02:11:00;95770.69;;;5.96;100.00
29239;BME280;16267;48.194;11.546;2023-04-16T02:13:25;95776.03;;;5.96;100.00
29239;BME280;16267;48.194;11.546;2023-04-16T02:15:52;95774.88;;;5.93;100.00
29239;BME280;16267;48.194;11.546;2023-04-16T02:18:18;95768.72;;;5.89;100.00
29239;BME280;16267;48.194;11.546;2023-04-16T02:20:45;95777.88;;;5.92;100.00
29239;BME280;16267;48.194;11.546;2023-04-16T02:23:12;95777.53;;;5.97;100.00
29239;BME280;16267;48.194;11.546;2023-04-16T02:25:41;95772.56;;;5.95;100.00
29239;BME280;16267;48.194;11.546;2023-04-16T02:28:09;95772.91;;;5.87;100.00
29239;BME280;16267;48.194;11.546;2023-04-16T02:30:36;95773.28;;;5.89;100.00
29239;BME280;16267;48.194;11.546;2023-04-16T02:33:04;95782.81;;;5.90;100.00
29239;BME280;16267;48.194;11.546;2023-04-16T02:35:36;95775.56;;;5.90;100.00
29239;BME280;16267;48.194;11.546;2023-04-16T02:38:03;95778.63;;;5.89;100.00
29239;BME280;16267;48.194;11.546;2023-04-16T02:40:29;95771.78;;;5.91;100.00
29239;BME280;16267;48.194;11.546;2023-04-16T02:42:56;95774.06;;;5.93;100.00
29239;BME280;16267;48.194;11.546;2023-04-16T02:45:22;95771.06;;;5.94;100.00
29239;BME280;16267;48.194;11.546;2023-04-16T02:47:49;95774.88;;;6.00;100.00
29239;BME280;16267;48.194;11.546;2023-04-16T02:50:16;95784.03;;;5.99;100.00
29239;BME280;16267;48.194;11.546;2023-04-16T02:52:42;95786.69;;;6.03;100.00
29239;BME280;16267;48.194;11.546;2023-04-16T02:55:09;95787.84;;;6.06;100.00
29239;BME280;16267;48.194;11.546;2023-04-16T02:57:35;95793.94;;;6.06;100.00
29239;BME280;16267;48.194;11.546;2023-04-16T03:00:01;95796.59;;;6.02;100.00
29239;BME280;16267;48.194;11.546;2023-04-16T03:02:29;95798.50;;;6.09;100.00
29239;BME280;16267;48.194;11.546;2023-04-16T03:04:54;95793.94;;;6.06;100.00
29239;BME280;16267;48.194;11.546;2023-04-16T03:07:20;95804.22;;;6.08;100.00
29239;BME280;16267;48.194;11.546;2023-04-16T03:09:46;95796.25;;;6.08;100.00
29239;BME280;16267;48.194;11.546;2023-04-16T03:12:12;95805.75;;;6.09;100.00
29239;BME280;16267;48.194;11.546;2023-04-16T03:14:38;95785.94;;;6.06;100.00
29239;BME280;16267;48.194;11.546;2023-04-16T03:17:06;95798.50;;;6.02;100.00
29239;BME280;16267;48.194;11.546;2023-04-16T03:19:40;95803.78;;;5.98;100.00
29239;BME280;16267;48.194;11.546;2023-04-16T03:22:06;95804.59;;;6.06;100.00
29239;BME280;16267;48.194;11.546;2023-04-16T03:24:32;95795.84;;;6.06;100.00
29239;BME280;16267;48.194;11.546;2023-04-16T03:26:57;95798.09;;;6.00;100.00
29239;BME280;16267;48.194;11.546;2023-04-16T03:29:24;95802.69;;;6.03;100.00
29239;BME280;16267;48.194;11.546;2023-04-16T03:31:51;95803.44;;;6.03;100.00
29239;BME280;16267;48.194;11.546;2023-04-16T03:34:16;95800.81;;;6.07;100.00
29239;BME280;16267;48.194;11.546;2023-04-16T03:36:42;95808.00;;;6.03;100.00
29239;BME280;16267;48.194;11.546;2023-04-16T03:39:08;95802.59;;;5.85;100.00
29239;BME280;16267;48.194;11.546;2023-04-16T03:41:34;95807.16;;;5.92;100.00
29239;BME280;16267;48.194;11.546;2023-04-16T03:44:22;95804.19;;;5.93;100.00
29239;BME280;16267;48.194;11.546;2023-04-16T03:47:04;95807.53;;;5.90;100.00
29239;BME280;16267;48.194;11.546;2023-04-16T03:49:30;95809.13;;;5.95;100.00
29239;BME280;16267;48.194;11.546;2023-04-16T03:52:02;95809.91;;;5.99;100.00
29239;BME280;16267;48.194;11.546;2023-04-16T03:54:46;95812.53;;;5.95;100.00
29239;BME280;16267;48.194;11.546;2023-04-16T03:57:11;95811.41;;;5.96;100.00
29239;BME280;16267;48.194;11.546;2023-04-16T03:59:37;95815.59;;;5.97;100.00
29239;BME280;16267;48.194;11.546;2023-04-16T04:02:03;95829.25;;;5.92;100.00
29239;BME280;16267;48.194;11.546;2023-04-16T04:04:40;95824.00;;;5.99;100.00
29239;BME280;16267;48.194;11.546;2023-04-16T04:07:06;95821.63;;;5.91;100.00
29239;BME280;16267;48.194;11.546;2023-04-16T04:09:32;95827.75;;;5.95;100.00
29239;BME280;16267;48.194;11.546;2023-04-16T04:11:58;95830.00;;;5.93;100.00
29239;BME280;16267;48.194;11.546;2023-04-16T04:14:24;95828.84;;;5.90;100.00
29239;BME280;16267;48.194;11.546;2023-04-16T04:16:49;95823.91;;;5.92;100.00
29239;BME280;16267;48.194;11.546;2023-04-16T04:19:18;95825.41;;;5.90;100.00
29239;BME280;16267;48.194;11.546;2023-04-16T04:21:44;95830.81;;;5.93;100.00
29239;BME280;16267;48.194;11.546;2023-04-16T04:24:10;95833.50;;;5.97;100.00
29239;BME280;16267;48.194;11.546;2023-04-16T04:26:35;95840.72;;;5.96;100.00
29239;BME280;16267;48.194;11.546;2023-04-16T04:29:01;95844.91;;;5.94;100.00
29239;BME280;16267;48.194;11.546;2023-04-16T04:31:27;95841.47;;;5.97;100.00
29239;BME280;16267;48.194;11.546;2023-04-16T04:33:52;95841.84;;;5.95;100.00
29239;BME280;16267;48.194;11.546;2023-04-16T04:36:18;95831.16;;;5.92;100.00
29239;BME280;16267;48.194;11.546;2023-04-16T04:38:44;95843.31;;;5.93;100.00
29239;BME280;16267;48.194;11.546;2023-04-16T04:41:10;95842.63;;;5.96;100.00
29239;BME280;16267;48.194;11.546;2023-04-16T04:43:35;95837.66;;;5.98;100.00
29239;BME280;16267;48.194;11.546;2023-04-16T04:46:01;95842.63;;;5.99;100.00
29239;BME280;16267;48.194;11.546;2023-04-16T04:48:27;95846.81;;;6.00;100.00
29239;BME280;16267;48.194;11.546;2023-04-16T04:50:56;95849.13;;;6.02;100.00
29239;BME280;16267;48.194;11.546;2023-04-16T04:53:22;95855.22;;;6.02;100.00
29239;BME280;16267;48.194;11.546;2023-04-16T04:55:47;95856.34;;;6.01;100.00
29239;BME280;16267;48.194;11.546;2023-04-16T04:58:13;95855.63;;;6.05;100.00
29239;BME280;16267;48.194;11.546;2023-04-16T05:00:39;95856.34;;;6.01;100.00
29239;BME280;16267;48.194;11.546;2023-04-16T05:03:10;95857.88;;;6.02;100.00
29239;BME280;16267;48.194;11.546;2023-04-16T05:05:38;95859.41;;;6.03;100.00
29239;BME280;16267;48.194;11.546;2023-04-16T05:08:05;95855.63;;;6.05;100.00
29239;BME280;16267;48.194;11.546;2023-04-16T05:10:31;95858.28;;;6.08;100.00
29239;BME280;16267;48.194;11.546;2023-04-16T05:12:56;95860.97;;;6.12;100.00
29239;BME280;16267;48.194;11.546;2023-04-16T05:15:23;95865.53;;;6.15;100.00
29239;BME280;16267;48.194;11.546;2023-04-16T05:17:49;95866.31;;;6.15;100.00
29239;BME280;16267;48.194;11.546;2023-04-16T05:20:15;95867.84;;;6.13;100.00
29239;BME280;16267;48.194;11.546;2023-04-16T05:22:40;95870.50;;;6.20;100.00
29239;BME280;16267;48.194;11.546;2023-04-16T05:25:07;95875.03;;;6.05;100.00
29239;BME280;16267;48.194;11.546;2023-04-16T05:27:33;95872.38;;;6.12;100.00
29239;BME280;16267;48.194;11.546;2023-04-16T05:29:58;95873.94;;;6.17;100.00
29239;BME280;16267;48.194;11.546;2023-04-16T05:32:25;95886.50;;;6.13;100.00
29239;BME280;16267;48.194;11.546;2023-04-16T05:34:52;95884.97;;;6.15;100.00
29239;BME280;16267;48.194;11.546;2023-04-16T05:37:17;95881.50;;;6.08;100.00
29239;BME280;16267;48.194;11.546;2023-04-16T05:39:43;95886.44;;;6.06;100.00
29239;BME280;16267;48.194;11.546;2023-04-16T05:42:09;95889.44;;;6.00;100.00
29239;BME280;16267;48.194;11.546;2023-04-16T05:44:34;95881.91;;;6.10;100.00
29239;BME280;16267;48.194;11.546;2023-04-16T05:47:00;95883.34;;;5.96;100.00
29239;BME280;16267;48.194;11.546;2023-04-16T05:49:26;95887.19;;;6.02;100.00
29239;BME280;16267;48.194;11.546;2023-04-16T05:51:52;95892.47;;;5.95;100.00
29239;BME280;16267;48.194;11.546;2023-04-16T05:54:18;95887.53;;;5.97;100.00
29239;BME280;16267;48.194;11.546;2023-04-16T05:56:43;95892.09;;;6.00;100.00
29239;BME280;16267;48.194;11.546;2023-04-16T05:59:09;95888.69;;;6.00;100.00
29239;BME280;16267;48.194;11.546;2023-04-16T06:01:35;95894.78;;;6.00;100.00
29239;BME280;16267;48.194;11.546;2023-04-16T06:04:04;95896.72;;;6.07;100.00
29239;BME280;16267;48.194;11.546;2023-04-16T06:06:30;95899.00;;;6.05;100.00
29239;BME280;16267;48.194;11.546;2023-04-16T06:08:55;95895.16;;;5.99;100.00
29239;BME280;16267;48.194;11.546;2023-04-16T06:11:21;95900.50;;;6.06;100.00
29239;BME280;16267;48.194;11.546;2023-04-16T06:13:47;95906.59;;;5.99;100.00
29239;BME280;16267;48.194;11.546;2023-04-16T06:16:13;95905.09;;;6.09;100.00
29239;BME280;16267;48.194;11.546;2023-04-16T06:18:38;95910.88;;;6.22;100.00
29239;BME280;16267;48.194;11.546;2023-04-16T06:21:04;95908.97;;;6.22;100.00
29239;BME280;16267;48.194;11.546;2023-04-16T06:23:30;95899.53;;;6.39;100.00
29239;BME280;16267;48.194;11.546;2023-04-16T06:25:57;95907.16;;;6.37;100.00
29239;BME280;16267;48.194;11.546;2023-04-16T06:28:22;95910.97;;;6.40;100.00
29239;BME280;16267;48.194;11.546;2023-04-16T06:30:48;95909.84;;;6.44;100.00
29239;BME280;16267;48.194;11.546;2023-04-16T06:33:14;95903.38;;;6.42;100.00
29239;BME280;16267;48.194;11.546;2023-04-16T06:35:40;95906.03;;;6.42;100.00
29239;BME280;16267;48.194;11.546;2023-04-16T06:38:06;95914.78;;;6.35;100.00
29239;BME280;16267;48.194;11.546;2023-04-16T06:40:32;95918.91;;;6.25;100.00
29239;BME280;16267;48.194;11.546;2023-04-16T06:42:57;95925.03;;;6.33;100.00
29239;BME280;16267;48.194;11.546;2023-04-16T06:45:24;95920.44;;;6.27;100.00
29239;BME280;16267;48.194;11.546;2023-04-16T06:47:49;95928.50;;;6.41;100.00
29239;BME280;16267;48.194;11.546;2023-04-16T06:50:16;95925.09;;;6.44;100.00
29239;BME280;16267;48.194;11.546;2023-04-16T06:52:42;95927.34;;;6.42;100.00
29239;BME280;16267;48.194;11.546;2023-04-16T06:55:08;95926.66;;;6.48;100.00
29239;BME280;16267;48.194;11.546;2023-04-16T06:57:35;95928.94;;;6.54;100.00
29239;BME280;16267;48.194;11.546;2023-04-16T07:00:02;95930.13;;;6.63;100.00
29239;BME280;16267;48.194;11.546;2023-04-16T07:02:27;95936.97;;;6.57;100.00
29239;BME280;16267;48.194;11.546;2023-04-16T07:04:53;95940.03;;;6.63;100.00
29239;BME280;16267;48.194;11.546;2023-04-16T07:07:19;95941.19;;;6.65;100.00
29239;BME280;16267;48.194;11.546;2023-04-16T07:09:45;95943.06;;;6.58;100.00
29239;BME280;16267;48.194;11.546;2023-04-16T07:12:10;95941.91;;;6.52;100.00
29239;BME280;16267;48.194;11.546;2023-04-16T07:14:36;95939.69;;;6.68;100.00
29239;BME280;16267;48.194;11.546;2023-04-16T07:17:02;95945.78;;;6.72;100.00
29239;BME280;16267;48.194;11.546;2023-04-16T07:19:28;95939.69;;;6.79;100.00
29239;BME280;16267;48.194;11.546;2023-04-16T07:22:00;95936.59;;;6.62;100.00
29239;BME280;16267;48.194;11.546;2023-04-16T07:24:26;95935.41;;;6.53;100.00
29239;BME280;16267;48.194;11.546;2023-04-16T07:26:51;95940.75;;;6.53;100.00
29239;BME280;16267;48.194;11.546;2023-04-16T07:29:17;95941.09;;;6.51;100.00
29239;BME280;16267;48.194;11.546;2023-04-16T07:31:44;95943.06;;;6.58;100.00
29239;BME280;16267;48.194;11.546;2023-04-16T07:34:10;95947.28;;;6.66;100.00
29239;BME280;16267;48.194;11.546;2023-04-16T07:36:35;95949.59;;;6.71;100.00
29239;BME280;16267;48.194;11.546;2023-04-16T07:39:01;95954.81;;;6.50;100.00
29239;BME280;16267;48.194;11.546;2023-04-16T07:41:27;95948.72;;;6.49;100.00
29239;BME280;16267;48.194;11.546;2023-04-16T07:43:54;95954.06;;;6.53;100.00
29239;BME280;16267;48.194;11.546;2023-04-16T07:46:20;95956.34;;;6.51;100.00
29239;BME280;16267;48.194;11.546;2023-04-16T07:48:46;95957.84;;;6.44;100.00
29239;BME280;16267;48.194;11.546;2023-04-16T07:51:12;95957.13;;;6.55;100.00
29239;BME280;16267;48.194;11.546;2023-04-16T07:53:39;95965.91;;;6.59;100.00
29239;BME280;16267;48.194;11.546;2023-04-16T07:56:06;95962.47;;;6.58;100.00
29239;BME280;16267;48.194;11.546;2023-04-16T07:58:31;95965.50;;;6.57;100.00
29239;BME280;16267;48.194;11.546;2023-04-16T08:00:57;95962.16;;;6.70;100.00
29239;BME280;16267;48.194;11.546;2023-04-16T08:03:23;95961.44;;;6.81;100.00
29239;BME280;16267;48.194;11.546;2023-04-16T08:05:49;95963.75;;;6.89;100.00
29239;BME280;16267;48.194;11.546;2023-04-16T08:08:15;95969.13;;;6.93;100.00
29239;BME280;16267;48.194;11.546;2023-04-16T08:10:41;95967.22;;;7.01;100.00
29239;BME280;16267;48.194;11.546;2023-04-16T08:13:06;95961.50;;;7.09;100.00
29239;BME280;16267;48.194;11.546;2023-04-16T08:15:32;95968.75;;;7.09;100.00
29239;BME280;16267;48.194;11.546;2023-04-16T08:17:58;95964.94;;;7.06;100.00
29239;BME280;16267;48.194;11.546;2023-04-16T08:20:25;95964.59;;;7.15;100.00
29239;BME280;16267;48.194;11.546;2023-04-16T08:22:53;95964.59;;;7.15;100.00
29239;BME280;16267;48.194;11.546;2023-04-16T08:25:19;95973.38;;;7.15;100.00
29239;BME280;16267;48.194;11.546;2023-04-16T08:27:47;95969.97;;;7.33;100.00
29239;BME280;16267;48.194;11.546;2023-04-16T08:30:13;95960.44;;;7.43;100.00
29239;BME280;16267;48.194;11.546;2023-04-16T08:32:41;95970.00;;;7.51;100.00
29239;BME280;16267;48.194;11.546;2023-04-16T08:35:08;95967.69;;;7.35;98.56
29239;BME280;16267;48.194;11.546;2023-04-16T08:37:34;95968.47;;;7.46;99.64
29239;BME280;16267;48.194;11.546;2023-04-16T08:40:00;95974.97;;;7.59;100.00
29239;BME280;16267;48.194;11.546;2023-04-16T08:42:33;95976.50;;;7.78;100.00
29239;BME280;16267;48.194;11.546;2023-04-16T08:45:15;95979.16;;;7.78;99.78
29239;BME280;16267;48.194;11.546;2023-04-16T08:47:46;95982.22;;;7.80;98.66
29239;BME280;16267;48.194;11.546;2023-04-16T08:50:18;95979.56;;;7.91;97.14
29239;BME280;16267;48.194;11.546;2023-04-16T08:52:58;95972.66;;;8.12;99.39
29239;BME280;16267;48.194;11.546;2023-04-16T08:55:36;95974.56;;;8.25;97.99
29239;BME280;16267;48.194;11.546;2023-04-16T08:58:21;95977.63;;;8.27;95.24
29239;BME280;16267;48.194;11.546;2023-04-16T09:00:48;95980.69;;;8.44;96.58
29239;BME280;16267;48.194;11.546;2023-04-16T09:03:14;95984.09;;;8.55;96.81
29239;BME280;16267;48.194;11.546;2023-04-16T09:05:41;95984.47;;;8.61;95.33
29239;BME280;16267;48.194;11.546;2023-04-16T09:08:08;95988.69;;;8.62;92.69
29239;BME280;16267;48.194;11.546;2023-04-16T09:10:34;95986.75;;;8.59;89.98
29239;BME280;16267;48.194;11.546;2023-04-16T09:13:00;95992.13;;;8.55;88.76
29239;BME280;16267;48.194;11.546;2023-04-16T09:15:27;95997.06;;;8.71;91.05
29239;BME280;16267;48.194;11.546;2023-04-16T09:17:54;96003.13;;;8.82;90.68
29239;BME280;16267;48.194;11.546;2023-04-16T09:20:21;96003.53;;;8.77;88.12
29239;BME280;16267;48.194;11.546;2023-04-16T09:22:47;96000.84;;;8.84;89.72
29239;BME280;16267;48.194;11.546;2023-04-16T09:25:13;96007.34;;;8.87;86.95
29239;BME280;16267;48.194;11.546;2023-04-16T09:27:39;95999.72;;;8.71;84.59
29239;BME280;16267;48.194;11.546;2023-04-16T09:30:25;96002.41;;;8.71;84.80
29239;BME280;16267;48.194;11.546;2023-04-16T09:35:49;96008.03;;;8.94;86.91
29239;BME280;16267;48.194;11.546;2023-04-16T09:38:16;96004.59;;;8.98;85.52
29239;BME280;16267;48.194;11.546;2023-04-16T09:40:42;96004.97;;;9.07;85.67
29239;BME280;16267;48.194;11.546;2023-04-16T09:43:16;96001.13;;;9.08;83.97
29239;BME280;16267;48.194;11.546;2023-04-16T09:45:54;96005.66;;;9.18;84.13
29239;BME280;16267;48.194;11.546;2023-04-16T09:48:31;96004.09;;;9.24;86.28
29239;BME280;16267;48.194;11.546;2023-04-16T09:50:58;96006.06;;;9.20;80.44
29239;BME280;16267;48.194;11.546;2023-04-16T09:53:33;96006.09;;;9.06;79.59
29239;BME280;16267;48.194;11.546;2023-04-16T09:56:04;96003.03;;;9.07;79.87
29239;BME280;16267;48.194;11.546;2023-04-16T09:58:31;96006.06;;;9.20;82.47
29239;BME280;16267;48.194;11.546;2023-04-16T10:01:04;96004.81;;;9.35;83.33
29239;BME280;16267;48.194;11.546;2023-04-16T10:03:33;96010.94;;;9.32;80.14
29239;BME280;16267;48.194;11.546;2023-04-16T10:06:21;96002.81;;;9.54;82.94
29239;BME280;16267;48.194;11.546;2023-04-16T10:08:53;96014.66;;;9.56;78.59
29239;BME280;16267;48.194;11.546;2023-04-16T10:11:21;96008.44;;;9.67;77.65
29239;BME280;16267;48.194;11.546;2023-04-16T10:13:48;96008.41;;;9.74;77.54
29239;BME280;16267;48.194;11.546;2023-04-16T10:16:14;96011.47;;;9.76;75.82
29239;BME280;16267;48.194;11.546;2023-04-16T10:18:42;96007.59;;;9.80;76.77
29239;BME280;16267;48.194;11.546;2023-04-16T10:21:09;96016.41;;;9.77;78.50
29239;BME280;16267;48.194;11.546;2023-04-16T10:23:39;96011.47;;;9.72;76.97
29239;BME280;16267;48.194;11.546;2023-04-16T10:26:05;96014.94;;;9.73;77.49
29239;BME280;16267;48.194;11.546;2023-04-16T10:28:31;96018.72;;;9.79;77.52
29239;BME280;16267;48.194;11.546;2023-04-16T10:31:06;96023.34;;;9.71;76.89
29239;BME280;16267;48.194;11.546;2023-04-16T10:33:39;96017.28;;;9.64;75.92
29239;BME280;16267;48.194;11.546;2023-04-16T10:36:21;96016.06;;;9.72;76.70
29239;BME280;16267;48.194;11.546;2023-04-16T10:38:51;96018.38;;;9.73;77.05
29239;BME280;16267;48.194;11.546;2023-04-16T10:41:20;96012.50;;;9.89;78.13
29239;BME280;16267;48.194;11.546;2023-04-16T10:43:50;96013.75;;;9.81;75.49
29239;BME280;16267;48.194;11.546;2023-04-16T10:46:33;96018.19;;;9.98;75.88
29239;BME280;16267;48.194;11.546;2023-04-16T10:49:15;96018.16;;;10.02;74.31
29239;BME280;16267;48.194;11.546;2023-04-16T10:51:58;96017.34;;;10.09;76.38
29239;BME280;16267;48.194;11.546;2023-04-16T10:54:31;96017.06;;;9.96;74.66
29239;BME280;16267;48.194;11.546;2023-04-16T10:57:04;96015.03;;;10.11;76.32
29239;BME280;16267;48.194;11.546;2023-04-16T10:59:36;96019.97;;;10.16;77.25
29239;BME280;16267;48.194;11.546;2023-04-16T11:02:10;96019.59;;;10.17;77.31
29239;BME280;16267;48.194;11.546;2023-04-16T11:04:41;96023.41;;;10.20;77.52
29239;BME280;16267;48.194;11.546;2023-04-16T11:12:38;96030.56;;;9.81;76.00
29239;BME280;16267;48.194;11.546;2023-04-16T11:15:06;96033.28;;;9.74;76.12
29239;BME280;16267;48.194;11.546;2023-04-16T11:17:52;96032.06;;;9.90;76.28
29239;BME280;16267;48.194;11.546;2023-04-16T11:20:26;96038.13;;;9.94;75.34
29239;BME280;16267;48.194;11.546;2023-04-16T11:22:54;96032.75;;;10.01;75.74
29239;BME280;16267;48.194;11.546;2023-04-16T11:25:22;96028.47;;;10.07;74.82
29239;BME280;16267;48.194;11.546;2023-04-16T11:27:48;96031.53;;;10.09;75.69
29239;BME280;16267;48.194;11.546;2023-04-16T11:30:15;96034.94;;;10.13;75.78
29239;BME280;16267;48.194;11.546;2023-04-16T11:32:43;96033.88;;;10.00;73.56
29239;BME280;16267;48.194;11.546;2023-04-16T11:35:17;96033.25;;;9.78;72.99
29239;BME280;16267;48.194;11.546;2023-04-16T11:37:44;96037.03;;;9.88;74.96
29239;BME280;16267;48.194;11.546;2023-04-16T11:40:10;96036.31;;;9.80;74.96
29239;BME280;16267;48.194;11.546;2023-04-16T11:42:39;96040.47;;;9.88;74.84
29239;BME280;16267;48.194;11.546;2023-04-16T11:45:10;96033.97;;;9.86;74.23
29239;BME280;16267;48.194;11.546;2023-04-16T11:47:51;96038.94;;;9.91;75.77
29239;BME280;16267;48.194;11.546;2023-04-16T11:50:24;96039.34;;;9.86;75.29
29239;BME280;16267;48.194;11.546;2023-04-16T11:52:52;96040.44;;;9.95;75.21
29239;BME280;16267;48.194;11.546;2023-04-16T11:55:19;96042.78;;;9.90;74.71
29239;BME280;16267;48.194;11.546;2023-04-16T11:57:45;96039.25;;;10.00;75.73
29239;BME280;16267;48.194;11.546;2023-04-16T12:00:12;96046.53;;;9.99;74.75
29239;BME280;16267;48.194;11.546;2023-04-16T12:02:49;96046.94;;;9.94;74.20
29239;BME280;16267;48.194;11.546;2023-04-16T12:05:36;96044.25;;;9.98;72.93
29239;BME280;16267;48.194;11.546;2023-04-16T12:08:08;96044.72;;;9.86;73.61
29239;BME280;16267;48.194;11.546;2023-04-16T12:10:39;96041.38;;;9.71;73.16
29239;BME280;16267;48.194;11.546;2023-04-16T12:13:16;96047.78;;;9.84;74.06
29239;BME280;16267;48.194;11.546;2023-04-16T12:15:48;96054.56;;;9.99;74.78
29239;BME280;16267;48.194;11.546;2023-04-16T12:18:15;96052.69;;;9.96;74.30
29239;BME280;16267;48.194;11.546;2023-04-16T12:20:42;96042.66;;;10.04;74.07
29239;BME280;16267;48.194;11.546;2023-04-16T12:23:10;96048.38;;;10.10;74.03
29239;BME280;16267;48.194;11.546;2023-04-16T12:25:46;96044.09;;;10.16;74.11
29239;BME280;16267;48.194;11.546;2023-04-16T12:28:26;96052.13;;;10.19;74.50
29239;BME280;16267;48.194;11.546;2023-04-16T12:30:52;96053.28;;;10.18;74.35
29239;BME280;16267;48.194;11.546;2023-04-16T12:33:18;96054.84;;;10.16;74.13
29239;BME280;16267;48.194;11.546;2023-04-16T12:35:45;96055.25;;;10.14;75.04
29239;BME280;16267;48.194;11.546;2023-04-16T12:38:11;96050.59;;;10.18;75.22
29239;BME280;16267;48.194;11.546;2023-04-16T12:40:39;96054.53;;;10.03;75.23
29239;BME280;16267;48.194;11.546;2023-04-16T12:43:05;96057.56;;;10.09;75.02
29239;BME280;16267;48.194;11.546;2023-04-16T12:45:31;96049.50;;;10.12;75.62
29239;BME280;16267;48.194;11.546;2023-04-16T12:47:57;96049.44;;;10.19;76.71
29239;BME280;16267;48.194;11.546;2023-04-16T12:50:23;96055.19;;;10.21;76.40
29239;BME280;16267;48.194;11.546;2023-04-16T12:52:48;96053.75;;;10.10;75.40
29239;BME280;16267;48.194;11.546;2023-04-16T12:55:14;96057.66;;;9.98;74.72
29239;BME280;16267;48.194;11.546;2023-04-16T12:57:40;96057.22;;;10.07;75.24
29239;BME280;16267;48.194;11.546;2023-04-16T13:00:07;96056.81;;;10.08;76.05
29239;BME280;16267;48.194;11.546;2023-04-16T13:02:33;96050.41;;;9.91;75.51
29239;BME280;16267;48.194;11.546;2023-04-16T13:04:59;96054.22;;;9.94;75.78